createdAt,value
2022-08-17T00:01:52.732Z,22.00
2022-08-17T00:04:21.736Z,22.00
2022-08-17T00:06:50.754Z,22.00
2022-08-17T00:09:19.530Z,22.00
2022-08-17T00:12:40.799Z,21.90
2022-08-17T00:14:39.977Z,21.80
2022-08-17T00:17:08.345Z,21.80
2022-08-17T00:19:36.773Z,21.90
2022-08-17T00:22:34.726Z,21.90
2022-08-17T00:24:55.722Z,21.70
2022-08-17T00:27:24.124Z,21.80
2022-08-17T00:29:53.769Z,21.90
2022-08-17T00:33:12.614Z,21.90
2022-08-17T00:35:12.665Z,21.90
2022-08-17T00:37:40.943Z,22.00
2022-08-17T00:40:11.849Z,22.00
2022-08-17T00:42:40.578Z,22.00
2022-08-17T00:45:13.246Z,21.90
2022-08-17T00:47:41.834Z,21.90
2022-08-17T00:50:16.986Z,22.00
2022-08-17T00:52:53.487Z,22.00
2022-08-17T00:55:23.913Z,22.10
2022-08-17T00:57:56.546Z,22.10
2022-08-17T01:00:30.182Z,22.10
2022-08-17T01:03:03.109Z,22.10
2022-08-17T01:05:33.397Z,22.10
2022-08-17T01:08:03.515Z,22.10
2022-08-17T01:10:58.383Z,22.20
2022-08-17T01:13:27.693Z,22.20
2022-08-17T01:16:01.588Z,22.20
2022-08-17T01:18:30.143Z,22.20
2022-08-17T01:21:02.147Z,22.20
2022-08-17T01:23:32.110Z,22.20
2022-08-17T01:26:02.861Z,22.30
2022-08-17T01:28:54.003Z,22.20
2022-08-17T01:31:22.854Z,22.20
2022-08-17T01:33:51.630Z,22.20
2022-08-17T01:36:19.844Z,22.10
2022-08-17T01:38:49.574Z,22.40
2022-08-17T01:41:18.451Z,22.40
2022-08-17T01:43:50.489Z,22.30
2022-08-17T01:46:23.179Z,22.30
2022-08-17T01:48:51.640Z,22.40
2022-08-17T01:51:20.261Z,22.40
2022-08-17T01:53:54.028Z,22.60
2022-08-17T01:56:25.358Z,22.40
2022-08-17T01:58:54.086Z,22.40
2022-08-17T02:01:24.653Z,22.30
2022-08-17T02:04:00.652Z,22.30
2022-08-17T02:06:44.925Z,22.60
2022-08-17T02:09:16.964Z,22.80
2022-08-17T02:11:46.480Z,23.10
2022-08-17T02:14:16.224Z,23.40
2022-08-17T02:16:44.494Z,23.10
2022-08-17T02:19:15.648Z,23.40
2022-08-17T02:21:45.447Z,23.20
2022-08-17T02:25:00.749Z,23.20
2022-08-17T02:27:09.018Z,23.30
2022-08-17T02:29:37.393Z,23.10
2022-08-17T02:32:06.239Z,22.90
2022-08-17T02:34:34.697Z,22.80
2022-08-17T02:37:02.923Z,22.80
2022-08-17T02:39:32.512Z,22.60
2022-08-17T02:42:04.316Z,22.70
2022-08-17T02:44:35.423Z,22.90
2022-08-17T02:47:09.464Z,23.10
2022-08-17T02:49:38.285Z,22.90
2022-08-17T02:52:08.423Z,23.00
2022-08-17T02:54:41.190Z,23.50
2022-08-17T02:57:11.176Z,23.60
2022-08-17T02:59:39.680Z,23.40
2022-08-17T03:02:09.267Z,23.40
2022-08-17T03:04:38.306Z,23.20
2022-08-17T03:07:07.130Z,23.40
2022-08-17T03:09:35.555Z,24.10
2022-08-17T03:12:11.053Z,24.50
2022-08-17T03:14:41.776Z,24.10
2022-08-17T03:17:10.955Z,23.70
2022-08-17T03:19:45.764Z,23.20
2022-08-17T03:22:36.457Z,22.60
2022-08-17T03:25:02.889Z,22.30
2022-08-17T03:27:33.763Z,22.10
2022-08-17T03:30:03.327Z,22.20
2022-08-17T03:32:32.125Z,22.50
2022-08-17T03:35:01.585Z,22.50
2022-08-17T03:37:29.917Z,22.50
2022-08-17T03:39:58.417Z,22.30
2022-08-17T03:42:32.382Z,22.10
2022-08-17T03:45:04.022Z,22.10
2022-08-17T03:47:49.262Z,22.10
2022-08-17T03:50:34.450Z,22.20
2022-08-17T03:53:24.757Z,22.40
2022-08-17T03:56:25.293Z,22.30
2022-08-17T03:58:53.627Z,22.40
2022-08-17T04:01:23.303Z,22.40
2022-08-17T04:03:52.154Z,22.30
2022-08-17T04:06:20.818Z,22.30
2022-08-17T04:08:49.149Z,22.30
2022-08-17T04:11:17.450Z,22.20
2022-08-17T04:13:46.146Z,22.30
2022-08-17T04:16:14.539Z,22.20
2022-08-17T04:18:44.065Z,22.20
2022-08-17T04:21:12.533Z,22.20
2022-08-17T04:23:41.523Z,22.20
2022-08-17T04:26:11.070Z,22.00
2022-08-17T04:29:00.661Z,22.00
2022-08-17T04:31:29.426Z,22.00
2022-08-17T04:33:58.839Z,22.00
2022-08-17T04:36:28.246Z,22.00
2022-08-17T04:38:58.280Z,21.90
2022-08-17T04:41:43.947Z,21.90
2022-08-17T04:44:12.576Z,22.00
2022-08-17T04:46:55.359Z,22.20
2022-08-17T04:49:25.304Z,22.10
2022-08-17T04:51:56.854Z,22.00
2022-08-17T04:54:30.002Z,21.90
2022-08-17T04:56:58.410Z,21.90
2022-08-17T04:59:26.742Z,21.90
2022-08-17T05:01:55.698Z,21.90
2022-08-17T05:04:33.646Z,21.90
2022-08-17T05:07:04.576Z,21.90
2022-08-17T05:09:33.620Z,21.80
2022-08-17T05:12:02.418Z,21.80
2022-08-17T05:14:32.440Z,21.70
2022-08-17T05:17:07.354Z,21.70
2022-08-17T05:19:41.192Z,21.70
2022-08-17T05:22:09.658Z,21.60
2022-08-17T05:24:43.713Z,21.60
2022-08-17T05:27:22.825Z,21.60
2022-08-17T05:29:52.138Z,21.60
2022-08-17T05:32:38.550Z,21.70
2022-08-17T05:35:10.944Z,21.70
2022-08-17T05:37:39.391Z,21.70
2022-08-17T05:40:09.896Z,21.80
2022-08-17T05:42:38.476Z,21.80
2022-08-17T05:45:07.521Z,21.90
2022-08-17T05:47:36.007Z,21.80
2022-08-17T05:50:09.678Z,21.90
2022-08-17T05:52:48.775Z,22.00
2022-08-17T05:55:23.415Z,21.90
2022-08-17T05:58:06.117Z,21.90
2022-08-17T06:00:42.107Z,21.90
2022-08-17T06:03:23.539Z,21.90
2022-08-17T06:06:01.296Z,22.20
2022-08-17T06:08:39.572Z,22.10
2022-08-17T06:11:20.523Z,22.00
2022-08-17T06:14:16.562Z,21.90
2022-08-17T06:16:49.058Z,21.90
2022-08-17T06:19:21.221Z,21.80
2022-08-17T06:21:52.141Z,21.90
2022-08-17T06:24:28.482Z,22.10
2022-08-17T06:27:02.635Z,22.00
2022-08-17T06:29:42.185Z,22.00
2022-08-17T06:32:12.854Z,21.90
2022-08-17T06:34:42.327Z,22.10
2022-08-17T06:37:21.256Z,22.40
2022-08-17T06:39:59.605Z,22.20
2022-08-17T06:42:59.919Z,22.20
2022-08-17T06:45:39.035Z,22.20
2022-08-17T06:48:16.938Z,22.10
2022-08-17T06:50:50.126Z,22.10
2022-08-17T06:53:24.633Z,21.90
2022-08-17T06:56:02.188Z,21.90
2022-08-17T06:58:33.409Z,22.70
2022-08-17T07:01:06.780Z,23.20
2022-08-17T07:03:39.700Z,23.70
2022-08-17T07:06:13.500Z,23.90
2022-08-17T07:08:50.417Z,24.10
2022-08-17T07:11:27.139Z,24.30
2022-08-17T07:14:04.441Z,24.20
2022-08-17T07:16:46.692Z,24.40
2022-08-17T07:19:17.310Z,24.60
2022-08-17T07:21:55.002Z,24.40
2022-08-17T07:24:37.326Z,24.40
2022-08-17T07:27:12.923Z,24.50
2022-08-17T07:29:46.579Z,24.60
2022-08-17T07:32:19.221Z,24.70
2022-08-17T07:35:11.527Z,24.70
2022-08-17T07:37:40.994Z,24.80
2022-08-17T07:40:22.264Z,24.80
2022-08-17T07:43:19.914Z,24.90
2022-08-17T07:46:14.949Z,24.90
2022-08-17T07:48:45.005Z,25.00
2022-08-17T07:51:25.606Z,25.00
2022-08-17T07:54:04.776Z,25.00
2022-08-17T07:56:45.362Z,25.00
2022-08-17T07:59:18.366Z,25.00
2022-08-17T08:02:08.159Z,25.00
2022-08-17T08:07:32.057Z,25.00
2022-08-17T08:10:10.978Z,25.00
2022-08-17T08:12:42.050Z,24.90
2022-08-17T08:15:18.939Z,25.00
2022-08-17T08:17:52.189Z,25.00
2022-08-17T08:20:52.496Z,25.00
2022-08-17T08:23:28.633Z,25.00
2022-08-17T08:26:09.092Z,25.00
2022-08-17T08:28:47.115Z,24.60
2022-08-17T08:31:25.356Z,24.40
2022-08-17T08:34:05.901Z,24.20
2022-08-17T08:37:14.063Z,24.00
2022-08-17T08:39:48.375Z,24.00
2022-08-17T08:42:25.724Z,24.60
2022-08-17T08:45:04.396Z,24.80
2022-08-17T08:48:12.811Z,24.90
2022-08-17T08:51:05.313Z,24.00
2022-08-17T08:53:45.657Z,23.60
2022-08-17T08:56:21.230Z,23.40
2022-08-17T08:58:55.942Z,23.20
2022-08-17T09:01:31.997Z,23.10
2022-08-17T09:04:24.118Z,23.00
2022-08-17T09:07:03.195Z,22.80
2022-08-17T09:09:39.367Z,22.80
2022-08-17T09:12:15.476Z,22.70
2022-08-17T09:14:50.930Z,22.60
2022-08-17T09:17:22.621Z,22.60
2022-08-17T09:19:57.338Z,22.60
2022-08-17T09:22:32.234Z,22.60
2022-08-17T09:25:08.028Z,22.50
2022-08-17T09:27:54.976Z,22.50
2022-08-17T09:30:24.950Z,22.50
2022-08-17T09:32:58.713Z,22.40
2022-08-17T09:35:37.054Z,22.40
2022-08-17T09:38:20.642Z,22.40
2022-08-17T09:40:53.932Z,22.40
2022-08-17T09:43:31.728Z,22.40
2022-08-17T09:46:03.634Z,22.40
2022-08-17T09:48:36.853Z,22.40
2022-08-17T09:51:13.809Z,22.30
2022-08-17T09:53:44.762Z,22.40
2022-08-17T09:56:30.947Z,22.40
2022-08-17T09:59:28.252Z,22.40
2022-08-17T10:02:26.452Z,22.40
2022-08-17T10:05:03.348Z,22.30
2022-08-17T10:07:38.043Z,22.30
2022-08-17T10:10:15.015Z,22.30
2022-08-17T10:12:53.145Z,22.30
2022-08-17T10:15:31.459Z,22.30
2022-08-17T10:18:19.934Z,22.40
2022-08-17T10:21:15.832Z,22.50
2022-08-17T10:24:05.824Z,22.60
2022-08-17T10:26:40.272Z,22.60
2022-08-17T10:29:21.039Z,22.60
2022-08-17T10:31:52.235Z,22.60
2022-08-17T10:34:55.552Z,22.60
2022-08-17T10:37:53.494Z,23.10
2022-08-17T10:40:37.924Z,22.80
2022-08-17T10:43:23.138Z,22.80
2022-08-17T10:46:29.927Z,22.80
2022-08-17T10:49:22.931Z,22.90
2022-08-17T10:51:54.398Z,23.00
2022-08-17T10:54:47.347Z,23.20
2022-08-17T10:57:36.440Z,23.60
2022-08-17T11:00:10.251Z,23.70
2022-08-17T11:02:50.896Z,23.50
2022-08-17T11:05:44.427Z,23.40
2022-08-17T11:08:59.317Z,23.40
2022-08-17T11:11:47.934Z,23.40
2022-08-17T11:14:30.660Z,23.30
2022-08-17T11:17:11.391Z,23.20
2022-08-17T11:20:05.817Z,23.60
2022-08-17T11:23:31.304Z,23.60
2022-08-17T11:26:08.597Z,23.70
2022-08-17T11:28:48.862Z,23.70
2022-08-17T11:31:38.539Z,23.90
2022-08-17T11:34:15.852Z,23.80
2022-08-17T11:37:07.634Z,23.80
2022-08-17T11:40:06.500Z,23.80
2022-08-17T11:42:50.716Z,23.50
2022-08-17T11:45:39.845Z,23.30
2022-08-17T11:48:35.166Z,23.20
2022-08-17T11:51:30.346Z,23.20
2022-08-17T11:54:31.748Z,23.20
2022-08-17T11:56:59.394Z,23.20
2022-08-17T11:59:58.879Z,23.10
2022-08-17T12:02:39.094Z,23.20
2022-08-17T12:05:33.271Z,23.30
2022-08-17T12:08:09.122Z,23.50
2022-08-17T12:10:42.388Z,23.40
2022-08-17T12:13:15.723Z,23.50
2022-08-17T12:15:50.387Z,23.40
2022-08-17T12:18:24.630Z,23.30
2022-08-17T12:21:20.611Z,23.30
2022-08-17T12:23:57.326Z,23.20
2022-08-17T12:26:30.415Z,23.00
2022-08-17T12:29:02.750Z,23.10
2022-08-17T12:31:43.260Z,23.10
2022-08-17T12:34:17.168Z,23.20
2022-08-17T12:36:46.013Z,23.20
2022-08-17T12:39:21.604Z,23.30
2022-08-17T12:42:02.015Z,23.30
2022-08-17T12:44:33.315Z,23.30
2022-08-17T12:47:07.554Z,23.70
2022-08-17T12:49:37.945Z,23.60
2022-08-17T12:52:17.983Z,23.80
2022-08-17T12:54:51.239Z,24.20
2022-08-17T12:57:22.852Z,24.40
2022-08-17T12:59:55.485Z,24.30
2022-08-17T13:02:38.831Z,24.50
2022-08-17T13:05:10.468Z,24.40
2022-08-17T13:07:43.550Z,24.70
2022-08-17T13:10:22.127Z,24.90
2022-08-17T13:12:52.514Z,24.80
2022-08-17T13:15:29.547Z,24.70
2022-08-17T13:18:03.975Z,25.20
2022-08-17T13:20:32.741Z,25.30
2022-08-17T13:23:11.414Z,25.40
2022-08-17T13:25:40.823Z,25.30
2022-08-17T13:28:30.717Z,25.00
2022-08-17T13:31:25.205Z,24.90
2022-08-17T13:34:09.907Z,25.00
2022-08-17T13:36:39.945Z,25.20
2022-08-17T13:39:16.220Z,25.20
2022-08-17T13:41:45.105Z,25.10
2022-08-17T13:44:34.674Z,25.20
2022-08-17T13:47:04.224Z,25.00
2022-08-17T13:49:48.508Z,25.30
2022-08-17T13:52:37.970Z,25.10
2022-08-17T13:55:10.342Z,25.20
2022-08-17T13:57:39.109Z,25.20
2022-08-17T14:00:17.469Z,25.10
2022-08-17T14:02:46.384Z,25.20
2022-08-17T14:05:16.355Z,25.30
2022-08-17T14:07:45.345Z,25.40
2022-08-17T14:10:18.317Z,25.50
2022-08-17T14:12:52.681Z,25.40
2022-08-17T14:15:24.603Z,25.40
2022-08-17T14:18:13.218Z,25.30
2022-08-17T14:20:43.013Z,25.40
2022-08-17T14:23:11.993Z,25.50
2022-08-17T14:25:40.913Z,25.50
2022-08-17T14:28:09.458Z,25.40
2022-08-17T14:30:38.169Z,25.50
2022-08-17T14:33:08.351Z,25.50
2022-08-17T14:35:36.794Z,25.50
2022-08-17T14:38:07.132Z,25.60
2022-08-17T14:40:36.933Z,25.70
2022-08-17T14:43:05.574Z,25.70
2022-08-17T14:45:34.153Z,25.70
2022-08-17T14:48:05.732Z,25.50
2022-08-17T14:50:35.537Z,25.60
2022-08-17T14:53:06.555Z,25.60
2022-08-17T14:55:35.044Z,25.70
2022-08-17T14:58:04.379Z,25.70
2022-08-17T15:00:32.960Z,25.70
2022-08-17T15:03:02.281Z,25.70
2022-08-17T15:05:33.665Z,25.70
2022-08-17T15:08:03.877Z,25.70
2022-08-17T15:10:34.396Z,25.70
2022-08-17T15:13:03.060Z,25.70
2022-08-17T15:15:31.731Z,25.70
2022-08-17T15:18:01.026Z,25.70
2022-08-17T15:20:30.717Z,25.70
2022-08-17T15:22:59.543Z,25.80
2022-08-17T15:25:31.907Z,25.70
2022-08-17T15:28:02.303Z,25.70
2022-08-17T15:30:31.740Z,25.70
2022-08-17T15:33:00.999Z,25.60
2022-08-17T15:35:32.267Z,25.50
2022-08-17T15:38:08.034Z,25.60
2022-08-17T15:40:40.918Z,25.60
2022-08-17T15:43:13.818Z,25.60
2022-08-17T15:45:42.310Z,25.60
2022-08-17T15:48:11.324Z,25.60
2022-08-17T15:50:39.689Z,25.70
2022-08-17T15:53:08.178Z,25.70
2022-08-17T15:55:38.615Z,25.80
2022-08-17T15:58:07.208Z,25.60
2022-08-17T16:00:49.396Z,25.60
2022-08-17T16:04:01.841Z,25.50
2022-08-17T16:06:11.309Z,25.60
2022-08-17T16:08:41.582Z,25.60
2022-08-17T16:11:11.038Z,25.70
2022-08-17T16:13:39.877Z,25.70
2022-08-17T16:16:10.658Z,25.70
2022-08-17T16:18:40.573Z,25.50
2022-08-17T16:21:42.823Z,25.60
2022-08-17T16:24:13.293Z,25.80
2022-08-17T16:26:42.182Z,26.00
2022-08-17T16:29:10.695Z,25.90
2022-08-17T16:31:41.826Z,25.90
2022-08-17T16:34:17.458Z,26.00
2022-08-17T16:36:55.539Z,26.00
2022-08-17T16:39:25.645Z,26.10
2022-08-17T16:41:54.160Z,26.20
2022-08-17T16:44:23.213Z,26.20
2022-08-17T16:46:52.657Z,26.20
2022-08-17T16:49:35.537Z,26.30
2022-08-17T16:52:06.458Z,26.40
2022-08-17T16:54:35.405Z,26.20
2022-08-17T16:57:05.224Z,26.30
2022-08-17T16:59:41.834Z,26.40
2022-08-17T17:02:15.589Z,26.30
2022-08-17T17:04:50.600Z,26.30
2022-08-17T17:07:42.196Z,26.20
2022-08-17T17:10:13.885Z,26.00
2022-08-17T17:13:03.974Z,26.00
2022-08-17T17:15:42.583Z,26.10
2022-08-17T17:18:14.828Z,26.10
2022-08-17T17:20:48.702Z,26.10
2022-08-17T17:23:35.227Z,26.20
2022-08-17T17:26:13.269Z,26.20
2022-08-17T17:28:51.099Z,26.20
2022-08-17T17:31:23.831Z,26.20
2022-08-17T17:33:57.583Z,26.10
2022-08-17T17:36:30.570Z,26.20
2022-08-17T17:39:05.077Z,26.20
2022-08-17T17:41:38.270Z,26.10
2022-08-17T17:44:09.460Z,26.10
2022-08-17T17:46:41.095Z,26.00
2022-08-17T17:49:14.089Z,26.00
2022-08-17T17:52:06.548Z,26.00
2022-08-17T17:55:01.863Z,26.10
2022-08-17T17:57:39.447Z,26.10
2022-08-17T18:00:11.989Z,26.10
2022-08-17T18:02:52.775Z,26.10
2022-08-17T18:05:52.493Z,26.00
2022-08-17T18:08:34.686Z,26.00
2022-08-17T18:11:14.105Z,26.00
2022-08-17T18:13:57.331Z,25.70
2022-08-17T18:16:29.572Z,25.60
2022-08-17T18:19:01.422Z,25.70
2022-08-17T18:21:39.248Z,25.80
2022-08-17T18:24:10.505Z,25.80
2022-08-17T18:26:50.501Z,25.80
2022-08-17T18:29:39.806Z,25.70
2022-08-17T18:32:16.189Z,25.70
2022-08-17T18:34:47.559Z,25.90
2022-08-17T18:37:35.343Z,25.90
2022-08-17T18:40:31.247Z,25.90
2022-08-17T18:43:25.938Z,25.70
2022-08-17T18:45:56.803Z,25.30
2022-08-17T18:48:32.856Z,25.10
2022-08-17T18:51:06.356Z,25.00
2022-08-17T18:53:40.737Z,25.00
2022-08-17T18:56:33.884Z,25.20
2022-08-17T18:59:24.180Z,25.10
2022-08-17T19:02:45.022Z,25.20
2022-08-17T19:05:14.293Z,25.40
2022-08-17T19:07:44.304Z,25.40
2022-08-17T19:10:20.948Z,25.70
2022-08-17T19:12:53.724Z,25.80
2022-08-17T19:15:28.555Z,25.70
2022-08-17T19:18:01.652Z,25.50
2022-08-17T19:20:35.350Z,25.40
2022-08-17T19:23:17.085Z,25.20
2022-08-17T19:25:52.694Z,25.30
2022-08-17T19:28:24.650Z,25.30
2022-08-17T19:30:57.828Z,25.10
2022-08-17T19:33:27.324Z,24.80
2022-08-17T19:36:12.279Z,24.40
2022-08-17T19:38:49.105Z,24.20
2022-08-17T19:41:24.668Z,24.00
2022-08-17T19:44:07.802Z,23.90
2022-08-17T19:46:48.544Z,23.80
2022-08-17T19:49:40.259Z,23.70
2022-08-17T19:52:27.467Z,23.70
2022-08-17T19:55:02.137Z,23.60
2022-08-17T19:57:43.390Z,23.50
2022-08-17T20:00:15.078Z,23.40
2022-08-17T20:02:50.919Z,23.40
2022-08-17T20:05:23.758Z,23.30
2022-08-17T20:07:56.333Z,23.20
2022-08-17T20:10:45.141Z,23.30
2022-08-17T20:13:32.778Z,23.30
2022-08-17T20:16:02.951Z,23.20
2022-08-17T20:18:43.965Z,23.00
2022-08-17T20:21:22.371Z,22.90
2022-08-17T20:23:54.905Z,22.80
2022-08-17T20:26:27.317Z,22.90
2022-08-17T20:29:29.540Z,22.80
2022-08-17T20:32:25.243Z,22.80
2022-08-17T20:35:17.210Z,22.70
2022-08-17T20:37:53.932Z,22.60
2022-08-17T20:40:29.221Z,22.50
2022-08-17T20:42:58.853Z,22.50
2022-08-17T20:46:08.835Z,22.40
2022-08-17T20:48:42.300Z,22.40
2022-08-17T20:51:27.146Z,22.40
2022-08-17T20:54:16.177Z,22.30
2022-08-17T20:56:57.284Z,22.20
2022-08-17T21:00:14.042Z,22.00
2022-08-17T21:02:45.710Z,22.00
2022-08-17T21:05:38.283Z,22.00
2022-08-17T21:08:15.940Z,22.10
2022-08-17T21:10:46.585Z,22.10
2022-08-17T21:13:35.701Z,22.20
2022-08-17T21:16:26.895Z,22.10
2022-08-17T21:19:07.530Z,22.20
2022-08-17T21:21:59.119Z,22.20
2022-08-17T21:24:38.323Z,22.20
2022-08-17T21:27:24.609Z,22.10
2022-08-17T21:30:13.605Z,22.20
2022-08-17T21:32:44.625Z,22.10
2022-08-17T21:35:47.631Z,22.10
2022-08-17T21:38:19.567Z,22.10
2022-08-17T21:40:50.657Z,22.10
2022-08-17T21:43:25.128Z,22.00
2022-08-17T21:46:00.734Z,22.00
2022-08-17T21:48:30.890Z,21.90
2022-08-17T21:51:08.412Z,21.90
2022-08-17T21:53:41.347Z,21.90
2022-08-17T21:56:11.909Z,21.80
2022-08-17T21:58:45.402Z,21.80
2022-08-17T22:01:28.173Z,21.80
2022-08-17T22:04:00.675Z,21.70
2022-08-17T22:06:35.147Z,21.70
2022-08-17T22:09:16.703Z,21.70
2022-08-17T22:12:06.909Z,21.60
2022-08-17T22:14:51.658Z,21.60
2022-08-17T22:17:24.173Z,21.60
2022-08-17T22:19:56.349Z,21.50
2022-08-17T22:22:31.253Z,21.60
2022-08-17T22:25:03.267Z,21.60
2022-08-17T22:27:54.438Z,21.50
2022-08-17T22:30:35.683Z,21.50
2022-08-17T22:33:36.436Z,21.50
2022-08-17T22:36:22.635Z,21.40
2022-08-17T22:38:51.953Z,21.30
2022-08-17T22:41:42.509Z,21.20
2022-08-17T22:44:18.386Z,21.30
2022-08-17T22:46:58.800Z,21.20
2022-08-17T22:49:31.978Z,21.20
2022-08-17T22:52:32.093Z,21.00
2022-08-17T22:55:30.335Z,20.80
2022-08-17T22:58:16.520Z,20.90
2022-08-17T23:00:46.534Z,20.90
2022-08-17T23:03:19.034Z,20.90
2022-08-17T23:06:03.411Z,20.90
2022-08-17T23:08:34.592Z,20.90
2022-08-17T23:11:06.396Z,20.90
2022-08-17T23:13:34.761Z,20.90
2022-08-17T23:16:03.415Z,20.90
2022-08-17T23:18:31.685Z,20.80
2022-08-17T23:21:01.211Z,20.80
2022-08-17T23:23:31.537Z,20.80
2022-08-17T23:25:59.767Z,20.70
2022-08-17T23:28:28.525Z,20.70
2022-08-17T23:30:56.963Z,20.60
2022-08-17T23:33:29.875Z,20.60
2022-08-17T23:35:58.856Z,20.50
2022-08-17T23:38:28.767Z,20.40
2022-08-17T23:40:59.959Z,20.50
2022-08-17T23:43:30.378Z,20.50
2022-08-17T23:46:00.636Z,20.40
2022-08-17T23:48:35.938Z,20.40
2022-08-17T23:51:08.978Z,20.40
2022-08-17T23:53:44.015Z,20.40
2022-08-17T23:56:12.390Z,20.40
2022-08-17T23:58:42.208Z,20.40
